Tiempo atmosférico en la estación meteorológica de Carboneras, Almería (40 m.)

Fecha
DESCASC
Temp. máxima en grados centígrados (hora)
DESCASC
Temp. mínima en grados centígrados (hora)
DESCASC
Temp. media en grados centígrados
DESCASC
Racha de viento máxima en m/sg (hora)
DESCASC
Velocidad máxima media en intervalos de 10 minutos(hora)
DESCASC
Precipitaciones diarias en mm
DESCASC
Precipitaciones de 00:00 a 06:00 en mm
DESCASC
Precipitaciones de 06:00 a 12:00 en mm
DESCASC
Precipitaciones de 12:00 a 18:00 en mm
DESCASC
Precipitaciones de 18:00 a 24:00 en mm
DESCASC
17-08-2017 29.8 (13:40) 23.5 (06:20) 26.6 8.89 (15:00) 7.22 (15:10) 0 0 0 0 0
16-08-2017 29.3 (14:10) 22.8 (06:00) 26 8.33 (15:50) 6.11 (15:50) 0 0 0 0 0
15-08-2017 29.4 (13:40) 22.5 (00:00) 25.9 12.5 (01:30) 10.28 (01:40) 0 0 0 0 0
14-08-2017 28.6 (15:20) 23.5 (07:20) 26.1 15 (11:30) 12.22 (11:40) 0 0 0 0 0
13-08-2017 27.7 (13:20) 22.7 (00:00) 25.2 15 (23:10) 12.22 (14:20) 0 0 0 0 0
12-08-2017 27.6 (13:20) 22.6 (00:00) 25.1 14.44 (12:40) 11.11 (12:00) 0 0 0 0 0
11-08-2017 27.6 (13:50) 22.6 (00:00) 25.1 13.33 (00:30) 8.89 (23:10) 0 0 0 0 0
10-08-2017 25.9 (01:10) 22.4 (00:00) 24.1 21.67 (05:00) 16.39 (07:20) 0.2 0.2 0 0 0
09-08-2017 30.6 (12:30) 24.7 (00:00) 27.7 14.72 (01:10) 11.11 (01:10) 5.6 0 2.6 3 0
08-08-2017 33.3 (14:20) 24.2 (00:00) 28.8 19.17 (08:20) 13.61 (08:30) 0 0 0 0 0
07-08-2017 30 (12:20) 25.6 (00:00) 27.8 8.33 (02:30) 6.39 (02:10) 0 0 0 0 0
06-08-2017 32.1 (13:50) 23.4 (00:00) 27.7 8.33 (19:20) 6.39 (23:50) 0 0 0 0 0
05-08-2017 30.7 (13:20) 23.4 (00:00) 27.1 5.83 (16:30) 3.89 (15:00) 0 0 0 0 0
04-08-2017 30.4 (14:40) 24.1 (00:00) 27.3 6.94 (15:30) 4.44 (15:20) 0 0 0 0 0
03-08-2017 33.3 (19:50) 24.3 (00:00) 28.8 10 (15:00) 6.94 (14:50) 0 0 0 0 0
02-08-2017 31.5 (16:30) 25.2 (00:00) 28.4 13.61 (00:50) 8.89 (01:40) 0 0 0 0 0
01-08-2017 29.2 (13:40) 23 (00:00) 26.1 19.72 (15:20) 10.83 (23:40) 0 0 0 0 0
31-07-2017 30.6 (15:50) 22.7 (00:00) 26.7 8.33 (21:00) 5.28 (20:50) 0 0 0 0 0
30-07-2017 34 (17:10) 22.3 (00:00) 28.1 9.17 (14:10) 6.11 (14:10) 0 0 0 0 0
29-07-2017 29.8 (13:20) 22.8 (00:00) 26.3 6.39 (16:30) 4.17 (11:40) 0 0 0 0 0
28-07-2017 32.8 (17:20) 22 (00:00) 27.4 8.33 (13:10) 6.39 (13:30) 0 0 0 0 0
27-07-2017 28.4 (12:30) 21.2 (00:00) 24.8 6.67 (17:00) 4.44 (17:10) 0 0 0 0 0
26-07-2017 28.2 (15:40) 23.1 (00:00) 25.7 8.06 (17:40) 5.83 (17:30) 0 0 0 0 0
25-07-2017 29.1 (15:10) 22.5 (00:00) 25.8 11.67 (10:20) 8.89 (10:30) 0 0 0 0 0
24-07-2017 27.8 (16:20) 20.2 (00:00) 24 20.56 (18:10) 6.11 (15:10) 0 0 0 0 0
23-07-2017 27.9 (12:10) 22.4 (00:00) 25.1 9.72 (00:50) 6.11 (00:50) 0 0 0 0 0
22-07-2017 26.7 (11:50) 19.9 (00:00) 23.3 10 (00:20) 6.39 (01:10) 0 0 0 0 0

Gráficas

Temp. máximas Temp. mínimas Temp. medias Precipitaciones Rachas de viento máximas Velocidades máximas media en intervalos de 10 minutos

Datos horarios

Fecha y hora oficial Temperatura (ºC) Velocidad del viento (km/h) Dirección del viento Racha (km/h) Dirección de racha Precipitación (mm) Presión (hPa) Tendencia (hPa) Humedad (%)
2017-08-20 23:00:00 24.6 31 Nordeste 44 Nordeste 0 -- -- 77
2017-08-20 22:00:00 24.8 32 Nordeste 39 Nordeste 0 -- -- 76
2017-08-20 21:00:00 25.2 34 Nordeste 43 Nordeste 0 -- -- 76
2017-08-20 20:00:00 25.8 33 Nordeste 43 Nordeste 0 -- -- 74
2017-08-20 19:00:00 26.9 33 Nordeste 44 Este 0 -- -- 69
2017-08-20 18:00:00 27.4 34 Nordeste 41 Nordeste 0 -- -- 67
2017-08-20 17:00:00 28.1 28 Nordeste 38 Nordeste 0 -- -- 65
2017-08-20 16:00:00 28.9 31 Nordeste 48 Nordeste 0 -- -- 61
2017-08-20 15:00:00 28.5 33 Nordeste 48 Nordeste 0 -- -- 64
2017-08-20 14:00:00 28.4 36 Nordeste 49 Nordeste 0 -- -- 63
2017-08-20 13:00:00 28.1 40 Nordeste 49 Nordeste 0 -- -- 64
2017-08-20 12:00:00 28.5 37 Nordeste 48 Nordeste 0 -- -- 62
2017-08-20 11:00:00 27.8 37 Nordeste 48 Nordeste 0 -- -- 62
2017-08-20 10:00:00 26.7 32 Nordeste 44 Nordeste 0 -- -- 64
2017-08-20 09:00:00 25.2 30 Nordeste 44 Nordeste 0 -- -- 66
2017-08-20 08:00:00 24.3 27 Nordeste 38 Nordeste 0 -- -- 69
2017-08-20 07:00:00 24.1 25 Nordeste 35 Nordeste 0 -- -- 69
2017-08-20 06:00:00 24 27 Nordeste 36 Nordeste 0 -- -- 72
2017-08-20 05:00:00 24.3 29 Nordeste 38 Nordeste 0 -- -- 73
2017-08-20 04:00:00 24.4 30 Nordeste 42 Nordeste 0 -- -- 74
2017-08-20 03:00:00 24.7 28 Nordeste 43 Nordeste 0 -- -- 78
2017-08-20 02:00:00 24.8 33 Nordeste 42 Nordeste 0 -- -- 80
2017-08-20 01:00:00 24.8 35 Nordeste 42 Nordeste 0 -- -- 80
2017-08-20 00:00:00 24.9 32 Nordeste 41 Nordeste 0 -- -- 81
2017-08-19 23:00:00 25.1 32 Nordeste 39 Nordeste 0 -- -- 81
2017-08-19 22:00:00 25.3 28 Nordeste 37 Nordeste 0 -- -- 79
2017-08-19 21:00:00 25.7 30 Nordeste 38 Nordeste 0 -- -- 78
2017-08-19 20:00:00 26.6 29 Nordeste 39 Nordeste 0 -- -- 76
2017-08-19 19:00:00 27.3 27 Nordeste 35 Nordeste 0 -- -- 69
2017-08-19 18:00:00 28.3 27 Nordeste 35 Nordeste 0 -- -- 66
2017-08-19 17:00:00 28.9 27 Nordeste 35 Nordeste 0 -- -- 60
2017-08-19 16:00:00 29.4 27 Nordeste 35 Nordeste 0 -- -- 59
2017-08-19 15:00:00 29.1 26 Nordeste 33 Nordeste 0 -- -- 61
2017-08-19 14:00:00 28.8 28 Nordeste 40 Nordeste 0 -- -- 60
2017-08-19 13:00:00 28.3 32 Nordeste 41 Nordeste 0 -- -- 62
2017-08-19 12:00:00 27.6 32 Nordeste 40 Nordeste 0 -- -- 67
2017-08-19 11:00:00 26.4 30 Nordeste 39 Nordeste 0 -- -- 69
2017-08-19 10:00:00 25.1 26 Nordeste 33 Nordeste 0 -- -- 75
2017-08-19 09:00:00 24.2 17 Nordeste 22 Nordeste 0 -- -- 78
2017-08-19 08:00:00 23.5 6 Noroeste 9 Noroeste 0 -- -- 80
2017-08-19 07:00:00 23.6 5 Oeste 11 Sur 0 -- -- 81
2017-08-19 06:00:00 23.3 4 Oeste 8 Noroeste 0 -- -- 81
2017-08-19 05:00:00 23 6 Noroeste 10 Noroeste 0 -- -- 82
2017-08-19 04:00:00 22.7 6 Noroeste 11 Oeste 0 -- -- 83
2017-08-19 03:00:00 22.9 7 Noroeste 11 Noroeste 0 -- -- 82
2017-08-19 02:00:00 23.5 9 Oeste 19 Oeste 0 -- -- 79
2017-08-19 01:00:00 23.8 9 Oeste 14 Oeste 0 -- -- 80
2017-08-19 00:00:00 24.3 9 Oeste 14 Oeste 0 -- -- 79
2017-08-18 23:00:00 24.9 3 Sudoeste 10 Sur 0 -- -- 77
2017-08-18 22:00:00 25.4 6 Sudeste 12 Sudeste 0 -- -- 76
2017-08-18 21:00:00 25.7 7 Sudeste 13 Sudeste 0 -- -- 74
2017-08-18 20:00:00 26.2 9 Sudeste 17 Sudeste 0 -- -- 71
2017-08-18 19:00:00 26.7 9 Sudeste 15 Sudeste 0 -- -- 68
2017-08-18 18:00:00 27.7 10 Sudeste 16 Sudeste 0 -- -- 65
2017-08-18 17:00:00 28.7 10 Este 20 Este 0 -- -- 62
2017-08-18 16:00:00 28.7 12 Este 22 Este 0 -- -- 62
2017-08-18 15:00:00 29.4 17 Este 23 Este 0 -- -- 58
2017-08-18 14:00:00 29.8 17 Este 25 Este 0 -- -- 56
2017-08-18 13:00:00 29.2 18 Este 23 Este 0 -- -- 58
2017-08-18 12:00:00 28.8 17 Este 22 Nordeste 0 -- -- 61
2017-08-18 11:00:00 28.1 14 Este 20 Este 0 -- -- 66
2017-08-18 10:00:00 26.3 11 Nordeste 17 Nordeste 0 -- -- 71
2017-08-18 09:00:00 24.6 14 Nordeste 22 Nordeste 0 -- -- 79
2017-08-18 08:00:00 23.3 9 Nordeste 19 Nordeste 0 -- -- 82
2017-08-18 07:00:00 23.9 15 Nordeste 20 Nordeste 0 -- -- 83
2017-08-18 06:00:00 23.7 9 Norte 16 Nordeste 0 -- -- 82
2017-08-18 05:00:00 24.4 12 Nordeste 19 Nordeste 0 -- -- 82
2017-08-18 04:00:00 24.3 10 Nordeste 21 Nordeste 0 -- -- 81
2017-08-18 03:00:00 24.3 16 Nordeste 24 Nordeste 0 -- -- 83
2017-08-18 02:00:00 24.5 19 Nordeste 28 Nordeste 0 -- -- 82
2017-08-18 01:00:00 24.7 21 Nordeste 26 Nordeste 0 -- -- 79
2017-08-18 00:00:00 24.8 21 Nordeste 24 Nordeste 0 -- -- 80
2017-08-17 23:00:00 25 18 Nordeste 22 Nordeste 0 -- -- 81
2017-08-17 22:00:00 25.2 18 Nordeste 24 Nordeste 0 -- -- 80
2017-08-17 21:00:00 25.7 18 Nordeste 23 Nordeste 0 -- -- 78
2017-08-17 20:00:00 26.4 19 Nordeste 27 Nordeste 0 -- -- 74
2017-08-17 19:00:00 27 22 Nordeste 27 Nordeste 0 -- -- 72
2017-08-17 18:00:00 27.9 22 Nordeste 28 Nordeste 0 -- -- 67
2017-08-17 17:00:00 28.5 23 Nordeste 30 Este 0 -- -- 65
2017-08-17 16:00:00 28.7 24 Nordeste 31 Nordeste 0 -- -- 63
2017-08-17 15:00:00 29.2 26 Nordeste 32 Nordeste 0 -- -- 62
2017-08-17 14:00:00 29.3 25 Nordeste 30 Nordeste 0 -- -- 61
2017-08-17 13:00:00 29.4 22 Nordeste 27 Nordeste 0 -- -- 60
2017-08-17 12:00:00 28.7 19 Nordeste 29 Nordeste 0 -- -- 60
2017-08-17 11:00:00 27.6 21 Nordeste 27 Nordeste 0 -- -- 65
2017-08-17 10:00:00 26.3 22 Nordeste 30 Nordeste 0 -- -- 70
2017-08-17 09:00:00 24.9 21 Nordeste 27 Nordeste 0 -- -- 77
2017-08-17 08:00:00 23.9 16 Nordeste 21 Nordeste 0 -- -- 82
2017-08-17 07:00:00 23.6 12 Nordeste 14 Nordeste 0 -- -- 81
2017-08-17 06:00:00 23.6 7 Nordeste 15 Nordeste 0 -- -- 79
2017-08-17 05:00:00 23.7 10 Nordeste 13 Nordeste 0 -- -- 80
2017-08-17 04:00:00 23.8 5 Nordeste 10 Nordeste 0 -- -- 77
2017-08-17 03:00:00 24.1 4 Norte 7 Norte 0 -- -- 75
2017-08-17 02:00:00 24 4 Noroeste 9 Noroeste 0 -- -- 74
2017-08-17 01:00:00 24.2 7 Oeste 12 Oeste 0 -- -- 76
2017-08-17 00:00:00 24.7 8 Oeste 14 Oeste 0 -- -- 76
2017-08-16 23:00:00 25.2 5 Noroeste 8 Oeste 0 -- -- 73
2017-08-16 22:00:00 25.7 5 Sur 11 Sur 0 -- -- 72
2017-08-16 21:00:00 26.1 6 Sur 18 Sur 0 -- -- 66
2017-08-16 20:00:00 26.6 14 Sudeste 22 Sudeste 0 -- -- 64
2017-08-16 19:00:00 27.3 16 Sudeste 23 Sudeste 0 -- -- 63
2017-08-16 18:00:00 27.7 14 Sudeste 23 Sudeste 0 -- -- 61
2017-08-16 17:00:00 27.4 19 Sur 28 Sur 0 -- -- 61
2017-08-16 16:00:00 29 22 Sur 30 Sur 0 -- -- 56
2017-08-16 15:00:00 28.9 18 Sur 26 Sur 0 -- -- 57
2017-08-16 14:00:00 29.1 18 Sur 27 Sudeste 0 -- -- 58
2017-08-16 13:00:00 28.2 19 Sur 29 Sur 0 -- -- 62
2017-08-16 12:00:00 28 21 Sudeste 28 Sur 0 -- -- 63
2017-08-16 11:00:00 27.8 12 Sur 21 Sudeste 0 -- -- 63
2017-08-16 10:00:00 25.9 7 Sur 17 Oeste 0 -- -- 68
2017-08-16 09:00:00 24.2 10 Oeste 15 Oeste 0 -- -- 76
2017-08-16 08:00:00 23.6 6 Oeste 13 Noroeste 0 -- -- 79
2017-08-16 07:00:00 23.1 8 Oeste 14 Noroeste 0 -- -- 80
2017-08-16 06:00:00 22.8 11 Oeste 18 Oeste 0 -- -- 80
2017-08-16 05:00:00 23.2 10 Oeste 14 Oeste 0 -- -- 77
2017-08-16 04:00:00 23.8 6 Oeste 10 Oeste 0 -- -- 78
2017-08-16 03:00:00 24.3 3 Oeste 8 Oeste 0 -- -- 82
2017-08-16 02:00:00 24.3 3 Este 10 Este 0 -- -- 82
2017-08-16 01:00:00 24.5 8 Nordeste 11 Nordeste 0 -- -- 82
2017-08-16 00:00:00 24.9 10 Este 12 Este 0 -- -- 81
2017-08-15 23:00:00 25 2 Noroeste 7 Sur 0 -- -- 79
2017-08-15 22:00:00 25.3 6 Sur 11 Sudeste 0 -- -- 79
2017-08-15 21:00:00 25.6 9 Nordeste 18 Nordeste 0 -- -- 78
2017-08-15 20:00:00 26.3 14 Nordeste 19 Nordeste 0 -- -- 74
2017-08-15 19:00:00 27.3 15 Nordeste 21 Nordeste 0 -- -- 71
2017-08-15 18:00:00 27.8 18 Nordeste 24 Este 0 -- -- 67
2017-08-15 17:00:00 28.2 23 Nordeste 30 Nordeste 0 -- -- 66
2017-08-15 16:00:00 29.1 22 Nordeste 28 Nordeste 0 -- -- 61
2017-08-15 15:00:00 28.8 26 Este 32 Nordeste 0 -- -- 62
2017-08-15 14:00:00 28.8 23 Nordeste 40 Nordeste 0 -- -- 63
2017-08-15 13:00:00 28.4 33 Nordeste 43 Nordeste 0 -- -- 59
2017-08-15 12:00:00 28.2 29 Este 37 Este 0 -- -- 56
2017-08-15 11:00:00 28 30 Nordeste 40 Nordeste 0 -- -- 58
2017-08-15 10:00:00 26.8 27 Nordeste 35 Nordeste 0 -- -- 62
2017-08-15 09:00:00 23.8 14 Noroeste 23 Noroeste 0 -- -- 76
2017-08-15 08:00:00 23.1 9 Noroeste 17 Oeste 0 -- -- 74
2017-08-15 07:00:00 23 8 Sudoeste 17 Oeste 0 -- -- 62
2017-08-15 06:00:00 23.2 3 Sur 15 Sudoeste 0 -- -- 69
2017-08-15 05:00:00 23.6 7 Sudoeste 15 Sudoeste 0 -- -- 69
2017-08-15 04:00:00 23.3 10 Noroeste 31 Nordeste 0 -- -- 72
2017-08-15 03:00:00 24.5 33 Nordeste 45 Nordeste 0 -- -- 68
2017-08-15 02:00:00 24.5 32 Nordeste 45 Nordeste 0 -- -- 75
2017-08-15 01:00:00 24.6 33 Nordeste 44 Nordeste 0 -- -- 72
2017-08-15 00:00:00 24.5 36 Nordeste 45 Nordeste 0 -- -- 71
2017-08-14 23:00:00 24.7 34 Nordeste 42 Nordeste 0 -- -- 72
2017-08-14 22:00:00 24.7 31 Nordeste 41 Nordeste 0 -- -- 71
2017-08-14 21:00:00 24.9 36 Nordeste 46 Nordeste 0 -- -- 67
2017-08-14 20:00:00 25.5 31 Nordeste 42 Nordeste 0 -- -- 69
2017-08-14 19:00:00 26.1 32 Nordeste 42 Nordeste 0 -- -- 66
2017-08-14 18:00:00 27 31 Nordeste 44 Nordeste 0 -- -- 63
2017-08-14 17:00:00 27.4 30 Nordeste 45 Nordeste 0 -- -- 61
2017-08-14 16:00:00 27.8 32 Nordeste 42 Nordeste 0 -- -- 58
2017-08-14 15:00:00 28.1 35 Nordeste 45 Nordeste 0 -- -- 55
2017-08-14 14:00:00 27.3 35 Nordeste 49 Nordeste 0 -- -- 61
2017-08-14 13:00:00 27.6 37 Nordeste 53 Nordeste 0 -- -- 57
2017-08-14 12:00:00 27 43 Nordeste 54 Nordeste 0 -- -- 57
2017-08-14 11:00:00 26.5 41 Nordeste 49 Nordeste 0 -- -- 59
2017-08-14 10:00:00 25.2 37 Nordeste 47 Nordeste 0 -- -- 59
2017-08-14 09:00:00 24.6 34 Nordeste 47 Nordeste 0 -- -- 59
2017-08-14 08:00:00 23.8 30 Nordeste 45 Nordeste 0 -- -- 57
2017-08-14 07:00:00 23.7 32 Nordeste 53 Nordeste 0 -- -- 59
2017-08-14 06:00:00 23.8 30 Nordeste 53 Nordeste 0 -- -- 55
2017-08-14 05:00:00 24 38 Nordeste 51 Nordeste 0 -- -- 55
2017-08-14 04:00:00 23.9 26 Nordeste 46 Nordeste 0 -- -- 55
2017-08-14 03:00:00 23.8 24 Nordeste 43 Norte 0 -- -- 57
2017-08-14 02:00:00 24 27 Nordeste 48 Nordeste 0 -- -- 57
2017-08-14 01:00:00 24.1 36 Nordeste 46 Nordeste 0 -- -- 69
2017-08-14 00:00:00 24.1 37 Nordeste 54 Nordeste 0 -- -- 71
2017-08-13 23:00:00 24.2 39 Nordeste 53 Nordeste 0 -- -- 72
2017-08-13 22:00:00 24.1 40 Nordeste 53 Nordeste 0 -- -- 72
2017-08-13 21:00:00 24.3 40 Nordeste 53 Nordeste 0 -- -- 71
2017-08-13 20:00:00 24.8 39 Nordeste 50 Nordeste 0 -- -- 69
2017-08-13 19:00:00 25.4 39 Nordeste 49 Nordeste 0 -- -- 67
2017-08-13 18:00:00 26.3 38 Nordeste 51 Nordeste 0 -- -- 63
2017-08-13 17:00:00 27.1 35 Nordeste 49 Nordeste 0 -- -- 60
2017-08-13 16:00:00 26.7 40 Nordeste 53 Nordeste 0 -- -- 61
2017-08-13 15:00:00 27 42 Este 53 Nordeste 0 -- -- 58
2017-08-13 14:00:00 26.9 40 Este 51 Este 0 -- -- 60
2017-08-13 13:00:00 27.1 40 Nordeste 49 Nordeste 0 -- -- 55
2017-08-13 12:00:00 27.1 38 Nordeste 49 Nordeste 0 -- -- 56
2017-08-13 11:00:00 26.3 37 Nordeste 52 Nordeste 0 -- -- 59
2017-08-13 10:00:00 25.2 33 Nordeste 49 Nordeste 0 -- -- 59
2017-08-13 09:00:00 24 32 Nordeste 44 Nordeste 0 -- -- 65
2017-08-13 08:00:00 23.1 24 Nordeste 39 Norte 0 -- -- 66
2017-08-13 07:00:00 23 20 Nordeste 40 Nordeste 0 -- -- 63
2017-08-13 06:00:00 22.8 21 Nordeste 41 Nordeste 0 -- -- 65
2017-08-13 05:00:00 23.2 32 Nordeste 47 Nordeste 0 -- -- 66
2017-08-13 04:00:00 23.1 33 Nordeste 41 Nordeste 0 -- -- 67
2017-08-13 03:00:00 23.1 24 Nordeste 40 Nordeste 0 -- -- 67
2017-08-13 02:00:00 23.6 34 Nordeste 47 Nordeste 0 -- -- 70
2017-08-13 01:00:00 23.5 37 Nordeste 49 Nordeste 0 -- -- 73
2017-08-13 00:00:00 23.7 39 Nordeste 49 Nordeste 0 -- -- 73
2017-08-12 23:00:00 23.7 35 Nordeste 46 Nordeste 0 -- -- 74
2017-08-12 22:00:00 23.8 32 Nordeste 46 Nordeste 0 -- -- 72
2017-08-12 21:00:00 24.2 31 Nordeste 40 Nordeste 0 -- -- 69
2017-08-12 20:00:00 24.7 27 Nordeste 36 Nordeste 0 -- -- 66
2017-08-12 19:00:00 25.4 28 Nordeste 36 Nordeste 0 -- -- 62
2017-08-12 18:00:00 26.1 28 Nordeste 38 Este 0 -- -- 57
2017-08-12 17:00:00 27.2 29 Este 41 Este 0 -- -- 51
2017-08-12 16:00:00 27.1 34 Este 42 Este 0 -- -- 53
2017-08-12 15:00:00 27 35 Nordeste 44 Nordeste 0 -- -- 53
2017-08-12 14:00:00 26.9 37 Nordeste 51 Nordeste 0 -- -- 50
2017-08-12 13:00:00 27.3 39 Nordeste 52 Nordeste 0 -- -- 51
2017-08-12 12:00:00 26.5 40 Nordeste 51 Nordeste 0 -- -- 54
2017-08-12 11:00:00 26.1 36 Nordeste 49 Nordeste 0 -- -- 57
2017-08-12 10:00:00 24.8 33 Nordeste 47 Nordeste 0 -- -- 58
2017-08-12 09:00:00 23.8 26 Nordeste 41 Nordeste 0 -- -- 61
2017-08-12 08:00:00 22.6 21 Nordeste 38 Norte 0 -- -- 66
2017-08-12 07:00:00 22.6 20 Norte 34 Norte 0 -- -- 66
2017-08-12 06:00:00 22.7 19 Norte 34 Norte 0 -- -- 67
2017-08-12 05:00:00 22.8 15 Norte 35 Norte 0 -- -- 67
2017-08-12 04:00:00 23 20 Norte 33 Nordeste 0 -- -- 64
2017-08-12 03:00:00 23.3 22 Nordeste 41 Nordeste 0 -- -- 63
2017-08-12 02:00:00 23.7 33 Nordeste 48 Nordeste 0 -- -- 65
2017-08-12 01:00:00 23.6 36 Nordeste 45 Nordeste 0 -- -- 71
2017-08-12 00:00:00 23.7 31 Nordeste 41 Nordeste 0 -- -- 73
2017-08-11 23:00:00 23.9 31 Nordeste 42 Nordeste 0 -- -- 71
2017-08-11 22:00:00 23.9 30 Nordeste 42 Nordeste 0 -- -- 69
2017-08-11 21:00:00 24.4 28 Nordeste 40 Nordeste 0 -- -- 67
2017-08-11 20:00:00 24.9 30 Nordeste 40 Nordeste 0 -- -- 62
2017-08-11 19:00:00 25.5 29 Nordeste 36 Nordeste 0 -- -- 59
2017-08-11 18:00:00 26.1 28 Este 37 Este 0 -- -- 57
2017-08-11 17:00:00 26.4 28 Nordeste 39 Este 0 -- -- 54
2017-08-11 16:00:00 26.8 28 Nordeste 36 Nordeste 0 -- -- 55
2017-08-11 15:00:00 27.3 28 Nordeste 37 Nordeste 0 -- -- 50
2017-08-11 14:00:00 27.2 28 Nordeste 41 Nordeste 0 -- -- 52
2017-08-11 13:00:00 26.9 32 Nordeste 42 Nordeste 0 -- -- 50
2017-08-11 12:00:00 27.2 29 Nordeste 39 Nordeste 0 -- -- 51
2017-08-11 11:00:00 26.5 31 Nordeste 38 Nordeste 0 -- -- 53
2017-08-11 10:00:00 24 25 Nordeste 35 Nordeste 0 -- -- 65
2017-08-11 09:00:00 23.5 26 Nordeste 37 Nordeste 0 -- -- 66
2017-08-11 08:00:00 22.8 22 Nordeste 36 Nordeste 0 -- -- 66
2017-08-11 07:00:00 22.7 27 Nordeste 39 Nordeste 0 -- -- 66
2017-08-11 06:00:00 22.7 20 Nordeste 39 Nordeste 0 -- -- 68
2017-08-11 05:00:00 23 29 Nordeste 37 Nordeste 0 -- -- 72
2017-08-11 04:00:00 22.9 28 Nordeste 38 Nordeste 0 -- -- 72
2017-08-11 03:00:00 22.9 29 Nordeste 39 Nordeste 0 -- -- 74
2017-08-11 02:00:00 22.9 28 Nordeste 39 Nordeste 0 -- -- 74
2017-08-11 01:00:00 22.7 30 Nordeste 48 Nordeste 0 -- -- 74
2017-08-11 00:00:00 22.7 30 Nordeste 40 Nordeste 0 -- -- 75
2017-08-10 23:00:00 22.7 30 Nordeste 40 Nordeste 0 -- -- 74
2017-08-10 22:00:00 22.5 30 Nordeste 42 Nordeste 0 -- -- 75
2017-08-10 21:00:00 22.7 32 Nordeste 43 Nordeste 0 -- -- 75
2017-08-10 20:00:00 22.8 35 Nordeste 47 Nordeste 0 -- -- 75
2017-08-10 19:00:00 23.2 37 Nordeste 51 Nordeste 0 -- -- 73
2017-08-10 18:00:00 23.6 40 Nordeste 57 Nordeste 0 -- -- 71
2017-08-10 17:00:00 23.9 42 Nordeste 53 Nordeste 0 -- -- 71
2017-08-10 16:00:00 24.3 37 Nordeste 48 Este 0 -- -- 67
2017-08-10 15:00:00 24 35 Nordeste 46 Nordeste 0 -- -- 65
2017-08-10 14:00:00 23.3 37 Nordeste 55 Nordeste 0 -- -- 68
2017-08-10 13:00:00 23.2 45 Nordeste 60 Nordeste 0 -- -- 68
2017-08-10 12:00:00 23.6 42 Nordeste 58 Nordeste 0 -- -- 66
2017-08-10 11:00:00 22.9 48 Nordeste 70 Nordeste 0 -- -- 72
2017-08-10 10:00:00 22.8 55 Nordeste 72 Nordeste 0 -- -- 73
2017-08-10 09:00:00 22.9 46 Nordeste 67 Nordeste 0 -- -- 78
2017-08-10 08:00:00 22.9 50 Nordeste 73 Nordeste 0 -- -- 76
2017-08-10 07:00:00 23.5 58 Nordeste 73 Nordeste 0 -- -- 75
2017-08-10 06:00:00 23.9 54 Nordeste 67 Nordeste 0.2 -- -- 78
2017-08-10 05:00:00 24.4 35 Nordeste 78 Nordeste 0 -- -- 77
2017-08-10 04:00:00 24.9 21 Nordeste 28 Nordeste 0 -- -- 81
2017-08-10 03:00:00 25.3 23 Nordeste 33 Nordeste 0 -- -- 79
2017-08-10 02:00:00 25.5 25 Nordeste 39 Nordeste 0 -- -- 77
2017-08-10 01:00:00 25.5 11 Nordeste 31 Nordeste 0 -- -- 73
2017-08-10 00:00:00 24.7 13 Oeste 24 Oeste 0 -- -- 63
2017-08-09 23:00:00 25.5 12 Oeste 28 Oeste 0 -- -- 70
2017-08-09 22:00:00 26.1 15 Oeste 27 Sudoeste 0 -- -- 66
2017-08-09 21:00:00 26.1 17 Sur 28 Sur 0 -- -- 69
2017-08-09 20:00:00 27.3 15 Sur 35 Sur 0 -- -- 64
2017-08-09 19:00:00 28.2 18 Sur 39 Sur 0 -- -- 60
2017-08-09 18:00:00 28.8 19 Sur 41 Sur 0 -- -- 60
2017-08-09 17:00:00 29.8 15 Sur 39 Sur 0 -- -- 58
2017-08-09 16:00:00 29.1 23 Sur 37 Sur 0 -- -- 60
2017-08-09 15:00:00 28.6 15 Sudeste 27 Sudeste 0 -- -- 57
2017-08-09 14:00:00 29.2 15 Este 22 Este 0.8 -- -- 53
2017-08-09 13:00:00 29.8 13 Este 22 Este 2.2 -- -- 51
2017-08-09 12:00:00 30.4 17 Este 29 Nordeste 2.6 -- -- 49
2017-08-09 11:00:00 29.4 23 Nordeste 32 Nordeste 0 -- -- 52
2017-08-09 10:00:00 28.7 23 Nordeste 32 Nordeste 0 -- -- 55
2017-08-09 09:00:00 27.2 18 Nordeste 28 Nordeste 0 -- -- 59
2017-08-09 08:00:00 25.7 14 Nordeste 28 Nordeste 0 -- -- 65
2017-08-09 07:00:00 25.8 16 Norte 29 Nordeste 0 -- -- 64
2017-08-09 06:00:00 26.2 16 Nordeste 30 Nordeste 0 -- -- 64
2017-08-09 05:00:00 26.1 19 Nordeste 34 Norte 0 -- -- 64
2017-08-09 04:00:00 25.9 18 Nordeste 38 Nordeste 0 -- -- 62
2017-08-09 03:00:00 25.9 32 Nordeste 42 Nordeste 0 -- -- 66
2017-08-09 02:00:00 26.3 32 Nordeste 53 Nordeste 0 -- -- 75
2017-08-09 01:00:00 26.6 34 Nordeste 49 Nordeste 0 -- -- 74
2017-08-09 00:00:00 26.5 34 Nordeste 47 Nordeste 0 -- -- 78
2017-08-08 23:00:00 27.1 27 Nordeste 45 Nordeste 0 -- -- 73
2017-08-08 22:00:00 27.4 32 Nordeste 42 Nordeste 0 -- -- 73
2017-08-08 21:00:00 28.4 25 Nordeste 35 Nordeste 0 -- -- 63
2017-08-08 20:00:00 29.4 17 Nordeste 27 Oeste 0 -- -- 67
2017-08-08 19:00:00 33 17 Oeste 41 Oeste 0 -- -- 32
2017-08-08 18:00:00 32.7 26 Oeste 43 Oeste 0 -- -- 37
2017-08-08 17:00:00 31.8 24 Oeste 51 Oeste 0 -- -- 44
2017-08-08 16:00:00 29.7 25 Oeste 55 Oeste 0 -- -- 56
2017-08-08 15:00:00 29.9 29 Oeste 60 Oeste 0 -- -- 57
2017-08-08 14:00:00 32.5 17 Sudoeste 33 Sudoeste 0 -- -- 43
2017-08-08 13:00:00 31.6 14 Sudoeste 35 Sur 0 -- -- 45
2017-08-08 12:00:00 31.7 19 Sur 48 Oeste 0 -- -- 44
2017-08-08 11:00:00 31.7 33 Oeste 54 Oeste 0 -- -- 40
2017-08-08 10:00:00 29.5 19 Oeste 50 Oeste 0 -- -- 49
2017-08-08 09:00:00 25.5 43 Oeste 69 Oeste 0 -- -- 66
2017-08-08 08:00:00 24.2 40 Oeste 57 Oeste 0 -- -- 80
2017-08-08 07:00:00 24.2 24 Oeste 59 Oeste 0 -- -- 81
2017-08-08 06:00:00 24.5 32 Oeste 43 Oeste 0 -- -- 82
2017-08-08 05:00:00 25 14 Oeste 34 Oeste 0 -- -- 79
2017-08-08 04:00:00 25.3 16 Oeste 33 Oeste 0 -- -- 78
2017-08-08 03:00:00 25.5 13 Oeste 33 Oeste 0 -- -- 77
2017-08-08 02:00:00 25.6 9 Oeste 40 Oeste 0 -- -- 77
2017-08-08 01:00:00 25.7 20 Oeste 33 Oeste 0 -- -- 79
2017-08-08 00:00:00 25.6 13 Oeste 27 Oeste 0 -- -- 77
2017-08-07 23:00:00 26.4 9 Oeste 19 Sur 0 -- -- 75
2017-08-07 22:00:00 26.9 10 Este 16 Sur 0 -- -- 75
2017-08-07 21:00:00 27.1 9 Nordeste 21 Este 0 -- -- 74
2017-08-07 20:00:00 27.6 12 Este 18 Este 0 -- -- 71
2017-08-07 19:00:00 28 10 Sudeste 20 Sudeste 0 -- -- 69
2017-08-07 18:00:00 28.9 14 Sudeste 83 Sur 0 -- -- 65
2017-08-07 17:00:00 29.2 14 Sudeste 25 Sudeste 0 -- -- 64
2017-08-07 16:00:00 29.6 13 Sudeste 25 Sudeste 0 -- -- 63
2017-08-07 15:00:00 28.5 16 Sudeste 24 Sudeste 0 -- -- 68
2017-08-07 14:00:00 28.8 15 Sudeste 21 Sudeste 0 -- -- 65
2017-08-07 13:00:00 28.8 14 Este 20 Este 0 -- -- 65
2017-08-07 12:00:00 29.2 13 Este 20 Este 0 -- -- 63
2017-08-07 11:00:00 29.5 16 Este 23 Este 0 -- -- 63
2017-08-07 10:00:00 28.2 17 Este 24 Este 0 -- -- 67
2017-08-07 09:00:00 26.7 19 Este 23 Este 0 -- -- 72
2017-08-07 08:00:00 25.9 6 Nordeste 13 Este 0 -- -- 75
2017-08-07 07:00:00 25.8 8 Este 17 Nordeste 0 -- -- 75
2017-08-07 06:00:00 25.8 13 Este 22 Este 0 -- -- 76
2017-08-07 05:00:00 25.9 15 Nordeste 22 Nordeste 0 -- -- 77
2017-08-07 04:00:00 26.1 17 Nordeste 26 Nordeste 0 -- -- 77
2017-08-07 03:00:00 26.1 19 Nordeste 30 Nordeste 0 -- -- 77
2017-08-07 02:00:00 26.2 20 Nordeste 26 Nordeste 0 -- -- 76
2017-08-07 01:00:00 26.4 19 Nordeste 28 Nordeste 0 -- -- 76
2017-08-07 00:00:00 26.6 21 Nordeste 29 Nordeste 0 -- -- 76
2017-08-06 23:00:00 26.7 21 Nordeste 27 Nordeste 0 -- -- 75
2017-08-06 22:00:00 26.9 20 Nordeste 27 Nordeste 0 -- -- 74
2017-08-06 21:00:00 27.4 21 Nordeste 27 Nordeste 0 -- -- 72
2017-08-06 20:00:00 28.2 21 Nordeste 30 Nordeste 0 -- -- 68
2017-08-06 19:00:00 29 21 Nordeste 26 Nordeste 0 -- -- 66
2017-08-06 18:00:00 30.4 15 Este 25 Este 0 -- -- 60
2017-08-06 17:00:00 31.2 18 Este 26 Este 0 -- -- 58
2017-08-06 16:00:00 31.2 19 Este 28 Este 0 -- -- 57
2017-08-06 15:00:00 31.6 20 Este 26 Nordeste 0 -- -- 56
2017-08-06 14:00:00 31.8 21 Este 25 Este 0 -- -- 55
2017-08-06 13:00:00 31.2 21 Este 25 Este 0 -- -- 59
2017-08-06 12:00:00 30.8 14 Este 20 Este 0 -- -- 59
2017-08-06 11:00:00 29.5 10 Este 15 Nordeste 0 -- -- 65
2017-08-06 10:00:00 27.7 9 Este 12 Este 0 -- -- 68
2017-08-06 09:00:00 25.3 6 Noroeste 11 Oeste 0 -- -- 75
2017-08-06 08:00:00 23.6 9 Noroeste 11 Noroeste 0 -- -- 80
2017-08-06 07:00:00 23.8 7 Noroeste 12 Noroeste 0 -- -- 81
2017-08-06 06:00:00 24.3 7 Noroeste 9 Noroeste 0 -- -- 82
2017-08-06 05:00:00 24.7 4 Norte 7 Norte 0 -- -- 82
2017-08-06 04:00:00 25 5 Noroeste 7 Noroeste 0 -- -- 83
2017-08-06 03:00:00 25.3 5 Noroeste 8 Noroeste 0 -- -- 83
2017-08-06 02:00:00 25.9 4 Noroeste 8 Oeste 0 -- -- 80
2017-08-06 01:00:00 26.2 3 Noroeste 9 Sur 0 -- -- 78
2017-08-06 00:00:00 26.7 4 Noroeste 9 Sur 0 -- -- 76
2017-08-05 23:00:00 27.3 8 Sur 14 Sudeste 0 -- -- 74
2017-08-05 22:00:00 27.7 3 Sudoeste 13 Sur 0 -- -- 70
2017-08-05 21:00:00 28.6 4 Sur 18 Sudeste 0 -- -- 63
2017-08-05 20:00:00 29 12 Sudeste 17 Sudeste 0 -- -- 66
2017-08-05 19:00:00 28.4 9 Sudeste 16 Sudeste 0 -- -- 67
2017-08-05 18:00:00 28.4 11 Sudeste 19 Sudeste 0 -- -- 68
2017-08-05 17:00:00 28.8 11 Sudeste 21 Sudeste 0 -- -- 66
2017-08-05 16:00:00 28.7 13 Sudeste 20 Sudeste 0 -- -- 67
2017-08-05 15:00:00 29.1 14 Sudeste 20 Sudeste 0 -- -- 61
2017-08-05 14:00:00 29.8 12 Este 19 Este 0 -- -- 57
2017-08-05 13:00:00 29.8 12 Este 19 Este 0 -- -- 53
2017-08-05 12:00:00 30.1 12 Este 20 Este 0 -- -- 50
2017-08-05 11:00:00 28.5 11 Sudeste 18 Este 0 -- -- 57
2017-08-05 10:00:00 28.6 8 Este 13 Este 0 -- -- 52
2017-08-05 09:00:00 26.5 0 Calma 9 Noroeste 0 -- -- 53
2017-08-05 08:00:00 24.1 8 Noroeste 10 Noroeste 0 -- -- 65
2017-08-05 07:00:00 24.2 6 Noroeste 8 Noroeste 0 -- -- 72
2017-08-05 06:00:00 24.3 5 Noroeste 9 Oeste 0 -- -- 69
2017-08-05 05:00:00 24.4 5 Oeste 7 Oeste 0 -- -- 67
2017-08-05 04:00:00 25.2 3 Norte 5 Noroeste 0 -- -- 58
2017-08-05 03:00:00 25.5 2 Norte 7 Noroeste 0 -- -- 53
2017-08-05 02:00:00 25.9 5 Noroeste 7 Noroeste 0 -- -- 54
2017-08-05 01:00:00 26.2 3 Norte 5 Noroeste 0 -- -- 56
2017-08-05 00:00:00 26.4 2 Noroeste 6 Noroeste 0 -- -- 54
2017-08-04 23:00:00 27 3 Norte 6 Noroeste 0 -- -- 53
2017-08-04 22:00:00 27.4 3 Norte 8 Sudeste 0 -- -- 54
2017-08-04 21:00:00 27.5 4 Sudeste 10 Este 0 -- -- 52
2017-08-04 20:00:00 28 8 Sudeste 15 Sudeste 0 -- -- 55
2017-08-04 19:00:00 28.5 9 Sudeste 16 Sudeste 0 -- -- 55
2017-08-04 18:00:00 28.2 13 Sudeste 21 Sudeste 0 -- -- 47
2017-08-04 17:00:00 28.7 13 Sudeste 22 Sudeste 0 -- -- 56
2017-08-04 16:00:00 28.7 14 Sudeste 25 Sudeste 0 -- -- 62
2017-08-04 15:00:00 30.1 15 Sudeste 23 Sudeste 0 -- -- 58
2017-08-04 14:00:00 28.5 12 Sudeste 22 Sudeste 0 -- -- 61
2017-08-04 13:00:00 28.7 12 Sudeste 22 Sudeste 0 -- -- 61
2017-08-04 12:00:00 29.3 10 Sudeste 17 Sudeste 0 -- -- 57
2017-08-04 11:00:00 28.9 9 Este 19 Sudeste 0 -- -- 56
2017-08-04 10:00:00 28.9 9 Sudeste 16 Sudeste 0 1010.5 1.6 52
2017-08-04 09:00:00 27.3 5 Noroeste 11 Oeste 0 1009.9 1.2 46
2017-08-04 08:00:00 24.5 7 Oeste 10 Noroeste 0 1009.4 0.3 60
2017-08-04 07:00:00 24.7 3 Oeste 12 Oeste 0 1008.9 -0.5 55
2017-08-04 06:00:00 24.2 8 Oeste 13 Oeste 0 1008.7 -1.1 60
2017-08-04 05:00:00 24.7 9 Noroeste 12 Noroeste 0 1009.1 -1.2 63
2017-08-04 04:00:00 24.7 9 Noroeste 15 Oeste 0 1009.4 -1.2 59
2017-08-04 03:00:00 25 9 Oeste 20 Oeste 0 1009.8 -0.7 57
2017-08-04 02:00:00 26 12 Oeste 17 Oeste 0 1010.3 0 40
2017-08-04 01:00:00 27 2 Este 14 Oeste 0 1010.6 0.9 38
2017-08-04 00:00:00 27.8 2 Noroeste 16 Oeste 0 1010.5 1.4 36
2017-08-03 23:00:00 28.8 14 Oeste 29 Oeste 0 1010.3 1.7 32
2017-08-03 22:00:00 29.4 12 Oeste 24 Oeste 0 1009.7 1.1 37
2017-08-03 21:00:00 31 19 Oeste 31 Oeste 0 1009.1 -0.1 36
2017-08-03 20:00:00 33.1 19 Oeste 27 Oeste 0 1008.6 -1.3 33
2017-08-03 19:00:00 32 12 Sur 28 Sur 0 1008.6 -1.7 44
2017-08-03 18:00:00 31 18 Sur 34 Sur 0 1009.2 -1.6 48
2017-08-03 17:00:00 31.5 15 Sur 35 Sur 0 1009.9 -1.7 47
2017-08-03 16:00:00 31.6 17 Sur 32 Sur 0 1010.3 -1.9 45
2017-08-03 15:00:00 31.9 20 Sur 36 Sur 0 1010.8 -1.6 45
2017-08-03 14:00:00 30.8 18 Sur 25 Sur 0 1011.6 -0.9 53
2017-08-03 13:00:00 29.8 18 Sudeste 23 Sudeste 0 1012.2 0 60
2017-08-03 12:00:00 29.3 15 Sudeste 22 Sudeste 0 1012.4 0.6 64
2017-08-03 11:00:00 27.9 13 Sudeste 19 Sudeste 0 1012.5 0.7 70
2017-08-03 10:00:00 28.2 8 Sudeste 12 Este 0 1012.2 1 64
2017-08-03 09:00:00 26.1 5 Oeste 11 Oeste 0 1011.8 0.9 69
2017-08-03 08:00:00 24.4 7 Oeste 10 Noroeste 0 1011.8 1.4 74
2017-08-03 07:00:00 24.5 9 Oeste 15 Oeste 0 1011.2 0.7 72
2017-08-03 06:00:00 24.9 3 Sudoeste 21 Oeste 0 1010.9 0.2 66
2017-08-03 05:00:00 25.1 10 Oeste 21 Oeste 0 1010.4 -0.5 66
2017-08-03 04:00:00 25.1 5 Oeste 14 Oeste 0 1010.5 -1 69
2017-08-03 03:00:00 24.8 9 Oeste 13 Noroeste 0 1010.7 -1.2 74
2017-08-03 02:00:00 24.9 10 Noroeste 17 Noroeste 0 1010.9 -1 77
2017-08-03 01:00:00 25.5 10 Noroeste 16 Nordeste 0 1011.5 0.2 81
2017-08-03 00:00:00 26.4 14 Nordeste 19 Nordeste 0 1011.9 1.1 81
2017-08-02 23:00:00 26.7 11 Este 17 Nordeste 0 1011.9 1.9 81
2017-08-02 22:00:00 27.2 8 Nordeste 11 Nordeste 0 1011.3 1.6 79
2017-08-02 21:00:00 27.9 9 Este 14 Nordeste 0 1010.8 1 74
2017-08-02 20:00:00 28.5 10 Nordeste 15 Nordeste 0 1010 0 73
2017-08-02 19:00:00 29.3 12 Nordeste 18 Este 0 1009.7 -0.7 69
2017-08-02 18:00:00 30.1 15 Nordeste 23 Nordeste 0 1009.8 -1 65
2017-08-02 17:00:00 31.3 15 Nordeste 19 Nordeste 0 1010 -1 58
2017-08-02 16:00:00 31 8 Este 12 Nordeste 0 1010.4 -0.9 58
2017-08-02 15:00:00 29.4 5 Este 17 Este 0 1010.8 -0.5 65
2017-08-02 14:00:00 30.8 13 Este 19 Este 0 1011 -0.3 59
2017-08-02 13:00:00 30.5 13 Este 18 Nordeste 0 1011.3 0.2 58
2017-08-02 12:00:00 29.6 14 Este 18 Este 0 1011.3 0.4 60
2017-08-02 11:00:00 28 8 Este 13 Sudeste 0 1011.3 1.7 68
2017-08-02 10:00:00 27.3 5 Este 18 Sudeste 0 1011.1 2.1 69
2017-08-02 09:00:00 27.2 12 Sur 19 Nordeste 0 1010.9 1.3 65
2017-08-02 08:00:00 25.9 14 Nordeste 22 Nordeste 0 1009.6 -0.4 73
2017-08-02 07:00:00 25.5 18 Nordeste 23 Nordeste 0 1009 -1.4 74
2017-08-02 06:00:00 25.4 18 Nordeste 26 Nordeste 0 1009.6 -0.8 76
2017-08-02 05:00:00 26.7 9 Este 22 Nordeste 0 1010 0.3 68
2017-08-02 04:00:00 26.9 11 Oeste 27 Sur 0 1010.4 -0.7 61
2017-08-02 03:00:00 26.5 12 Oeste 42 Nordeste 0 1010.4 -3 61
2017-08-02 02:00:00 26.1 19 Norte 44 Este 0 1009.7 -1.9 66
2017-08-02 01:00:00 26.2 10 Este 49 Oeste 0 1011.1 -1 63
2017-08-02 00:00:00 25.7 14 Oeste 50 Nordeste 0 1013.4 2.8 80
2017-08-01 23:00:00 26.3 13 Norte 29 Nordeste 0 1011.6 2.1 75
2017-08-01 22:00:00 26.3 19 Nordeste 41 Nordeste 0 1012.1 2.1 79
2017-08-01 21:00:00 26.8 28 Nordeste 39 Este 0 1010.6 1.9 73
2017-08-01 20:00:00 26.3 9 Nordeste 19 Este 0 1009.5 1.7 75
2017-08-01 19:00:00 27 15 Sudeste 27 Este 0 1010 2.2 70
2017-08-01 18:00:00 28.4 20 Este 24 Este 0 1008.7 0.8 57
2017-08-01 17:00:00 28.8 6 Este 15 Sudeste 0 1007.8 -0.1 52
2017-08-01 16:00:00 27.9 8 Sudeste 71 Sudoeste 0 1007.8 0.4 53
2017-08-01 15:00:00 27.8 9 Sudeste 21 Sudeste 0 1007.9 0.5 60
2017-08-01 14:00:00 28.7 14 Sur 23 Sudeste 0 1007.9 0.5 58
2017-08-01 13:00:00 28.1 8 Sudeste 21 Sudeste 0 1007.4 0.4 63
2017-08-01 12:00:00 27.6 11 Sudeste 19 Sudeste 0 1007.4 1 65
2017-08-01 11:00:00 27.3 6 Sudeste 19 Sudeste 0 1007.4 1.7 67
2017-08-01 10:00:00 27.6 12 Este 17 Sudeste 0 1007 0.7 63
2017-08-01 09:00:00 25 5 Oeste 19 Noroeste 0 1006.4 0.3 62
2017-08-01 08:00:00 23 9 Noroeste 15 Oeste 0 1005.7 1.4 76
2017-08-01 07:00:00 23.4 10 Oeste 18 Oeste 0 1006.3 2.2 74
2017-08-01 06:00:00 24.4 12 Sur 20 Sudeste 0 1006.1 -0.6 72
2017-08-01 05:00:00 24.2 10 Noroeste 27 Oeste 0 1004.3 -1.9 69
2017-08-01 04:00:00 24.4 18 Noroeste 34 Oeste 0 1004.1 -1 71
2017-08-01 03:00:00 24.5 15 Sudoeste 35 Sur 0 1006.7 1.2 81
2017-08-01 02:00:00 24.7 12 Sur 19 Sur 0 1006.2 0.5 78
2017-08-01 01:00:00 25.3 9 Sudeste 24 Oeste 0 1005.1 -0.1 75
2017-08-01 00:00:00 25.7 11 Oeste 21 Oeste 0 1005.5 0.7 66
2017-07-31 23:00:00 25.9 7 Oeste 21 Oeste 0 1005.7 1.2 69
2017-07-31 22:00:00 26.1 13 Oeste 22 Sur 0 1005.2 1.2 70
2017-07-31 21:00:00 26.1 19 Sur 30 Sur 0 1004.8 0.7 74
2017-07-31 20:00:00 27.4 14 Sur 23 Sudeste 0 1004.5 0.3 47
2017-07-31 19:00:00 26.5 14 Sudeste 19 Sudeste 0 1004 -0.9 73
2017-07-31 18:00:00 27.1 13 Sudeste 21 Sudeste 0 1004.1 -1.6 68
2017-07-31 17:00:00 28.1 14 Este 21 Este 0 1004.2 -1.5 66
2017-07-31 16:00:00 30.2 12 Este 19 Este 0 1004.9 -1 59
2017-07-31 15:00:00 30.1 15 Este 20 Este 0 1005.7 -0.4 58
2017-07-31 14:00:00 30.2 15 Este 21 Este 0 1005.7 -0.2 57
2017-07-31 13:00:00 30 13 Este 18 Nordeste 0 1005.9 0.2 58
2017-07-31 12:00:00 28.7 14 Nordeste 19 Nordeste 0 1006.1 0.3 61
2017-07-31 11:00:00 28.5 13 Nordeste 16 Nordeste 0 1005.9 0.5 55
2017-07-31 10:00:00 27.4 9 Nordeste 13 Nordeste 0 1005.7 0.8 53
2017-07-31 09:00:00 25.4 3 Noroeste 12 Oeste 0 1005.8 1.4 62
2017-07-31 08:00:00 23.2 9 Oeste 12 Noroeste 0 1005.4 0.7 65
2017-07-31 07:00:00 23 7 Oeste 15 Noroeste 0 1004.9 0.1 66
2017-07-31 06:00:00 23.1 10 Noroeste 17 Oeste 0 1004.4 -0.7 72
2017-07-31 05:00:00 23.6 12 Oeste 19 Oeste 0 1004.7 -1.5 72
2017-07-31 04:00:00 23.4 7 Oeste 11 Oeste 0 1004.8 -1.7 73
2017-07-31 03:00:00 23.6 5 Oeste 8 Oeste 0 1005.1 -1.8 71
2017-07-31 02:00:00 24.4 0 Calma 14 Noroeste 0 1006.2 -0.8 63
2017-07-31 01:00:00 24.6 11 Oeste 26 Oeste 0 1006.5 0.4 65
2017-07-31 00:00:00 24.6 10 Oeste 15 Oeste 0 1006.9 1.7 75
2017-07-30 23:00:00 25 7 Sur 18 Sur 0 1007 2.2 76
2017-07-30 22:00:00 25.6 10 Sur 18 Sur 0 1006.1 1.5 70
2017-07-30 21:00:00 26 9 Sudeste 17 Este 0 1005.2 -0.1 68
2017-07-30 20:00:00 27.7 12 Este 21 Sudeste 0 1004.8 -1 61
2017-07-30 19:00:00 31.7 15 Sur 25 Sudeste 0 1004.6 -1.9 27
2017-07-30 18:00:00 32.5 7 Este 24 Sur 0 1005.3 -1.7 26
2017-07-30 17:00:00 33.7 17 Sur 31 Sur 0 1005.8 -1.8 23
2017-07-30 16:00:00 32.4 17 Sur 31 Sur 0 1006.5 -1.8 26
2017-07-30 15:00:00 32.1 16 Sur 33 Sur 0 1007 -1.7 24
2017-07-30 14:00:00 31.1 16 Sur 29 Sur 0 1007.6 -1.1 26
2017-07-30 13:00:00 28.4 19 Sur 31 Sudeste 0 1008.3 -0.6 56
2017-07-30 12:00:00 27.5 15 Sudeste 22 Sur 0 1008.7 -0.1 64
2017-07-30 11:00:00 27.2 10 Este 15 Este 0 1008.7 0.1 58
2017-07-30 10:00:00 26.5 5 Este 10 Este 0 1008.9 0.4 67
2017-07-30 09:00:00 25.3 4 Este 7 Nordeste 0 1008.8 0.3 70
2017-07-30 08:00:00 22.6 7 Oeste 14 Noroeste 0 1008.6 -0.2 62
2017-07-30 07:00:00 22.3 6 Noroeste 13 Oeste 0 1008.5 -0.6 66
2017-07-30 06:00:00 22.5 10 Noroeste 14 Noroeste 0 1008.5 -0.6 71
2017-07-30 05:00:00 22.7 9 Oeste 14 Oeste 0 1008.8 -0.4 80
2017-07-30 04:00:00 23.9 2 Norte 8 Nordeste 0 1009.1 -0.9 74
2017-07-30 03:00:00 24.5 4 Nordeste 10 Norte 0 1009.1 -1.3 67
2017-07-30 02:00:00 24.9 2 Norte 20 Oeste 0 1009.2 -1 65
2017-07-30 01:00:00 24.9 14 Oeste 22 Oeste 0 1010 0.3 63
2017-07-30 00:00:00 25 8 Oeste 11 Oeste 0 1010.4 1.2 59
2017-07-29 23:00:00 25.3 5 Oeste 9 Oeste 0 1010.2 1 68
2017-07-29 22:00:00 25.9 4 Oeste 11 Sudeste 0 1009.7 0.3 66
2017-07-29 21:00:00 26.1 8 Sur 17 Sudeste 0 1009.2 -0.7 72
2017-07-29 20:00:00 26.9 14 Sur 21 Sur 0 1009.2 -1.1 73
2017-07-29 19:00:00 26.7 12 Sudeste 22 Sudeste 0 1009.4 -1.5 74
2017-07-29 18:00:00 27.1 13 Sudeste 21 Sudeste 0 1009.9 -1.5 73
2017-07-29 17:00:00 27.8 14 Sudeste 23 Sudeste 0 1010.3 -1.7 68
2017-07-29 16:00:00 28.1 12 Sudeste 19 Sudeste 0 1010.9 -1.4 66
2017-07-29 15:00:00 28.5 13 Este 22 Sudeste 0 1011.4 -0.8 64
2017-07-29 14:00:00 29.2 12 Este 17 Sudeste 0 1012 0.1 59
2017-07-29 13:00:00 29.3 10 Este 18 Este 0 1012.3 0.6 58
2017-07-29 12:00:00 29.4 14 Este 20 Nordeste 0 1012.2 0.8 50
2017-07-29 11:00:00 27.9 5 Este 14 Este 0 1011.9 1 43
2017-07-29 10:00:00 27.3 11 Nordeste 14 Nordeste 0 1011.7 1 54
2017-07-29 09:00:00 26 3 Nordeste 9 Noroeste 0 1011.4 1 42
2017-07-29 08:00:00 23.8 5 Noroeste 10 Oeste 0 1010.9 0.6 45
2017-07-29 07:00:00 23 7 Oeste 14 Oeste 0 1010.7 0.4 52
2017-07-29 06:00:00 23.3 10 Oeste 14 Oeste 0 1010.4 0.1 54
2017-07-29 05:00:00 23.6 6 Oeste 9 Oeste 0 1010.3 -0.3 57
2017-07-29 04:00:00 23.6 7 Noroeste 10 Noroeste 0 1010.3 -0.4 62
2017-07-29 03:00:00 23.3 7 Noroeste 8 Noroeste 0 1010.3 -0.5 69
2017-07-29 02:00:00 23.6 6 Oeste 15 Nordeste 0 1010.6 -0.1 72
2017-07-29 01:00:00 24.4 9 Nordeste 17 Nordeste 0 1010.7 0.7 78
2017-07-29 00:00:00 24.6 7 Nordeste 12 Nordeste 0 1010.8 1.4 78
2017-07-28 23:00:00 24.7 6 Nordeste 13 Nordeste 0 1010.7 1.4 76
2017-07-28 22:00:00 25.2 9 Nordeste 12 Nordeste 0 1010 0.9 75
2017-07-28 21:00:00 26.2 6 Este 12 Este 0 1009.4 0.7 68
2017-07-28 20:00:00 27 9 Este 19 Nordeste 0 1009.3 0.1 65
2017-07-28 19:00:00 27.3 14 Nordeste 27 Nordeste 0 1009.1 -0.4 66
2017-07-28 18:00:00 29.7 19 Sur 25 Sudeste 0 1008.7 -1.1 50
2017-07-28 17:00:00 31.4 10 Sudeste 21 Sur 0 1009.2 -1.1 33
2017-07-28 16:00:00 30.1 17 Sudeste 24 Sudeste 0 1009.5 -1 42
2017-07-28 15:00:00 30 14 Sur 29 Sudeste 0 1009.8 -0.6 45
2017-07-28 14:00:00 28.8 17 Sudeste 30 Sudeste 0 1010.3 0 56
2017-07-28 13:00:00 28.1 19 Sur 25 Sudeste 0 1010.5 0.4 57
2017-07-28 12:00:00 27.5 11 Sudeste 17 Sudeste 0 1010.4 0.9 52
2017-07-28 11:00:00 27.4 6 Este 14 Este 0 1010.3 0.8 54
2017-07-28 10:00:00 26.5 11 Sudeste 15 Sudeste 0 1010.1 0.7 58
2017-07-28 09:00:00 25.2 5 Nordeste 10 Nordeste 0 1009.5 0.2 58
2017-07-28 08:00:00 23.5 6 Noroeste 17 Oeste 0 1009.5 0.3 59
2017-07-28 07:00:00 23.3 12 Oeste 19 Oeste 0 1009.4 0.3 60
2017-07-28 06:00:00 22.7 14 Oeste 17 Oeste 0 1009.3 0.2 68
2017-07-28 05:00:00 22.2 10 Oeste 14 Oeste 0 1009.2 -0.7 71
2017-07-28 04:00:00 23.2 3 Noroeste 22 Oeste 0 1009.1 -0.6 73
2017-07-28 03:00:00 23.4 14 Oeste 25 Oeste 0 1009.1 -0.7 73
2017-07-28 02:00:00 23.2 12 Oeste 22 Oeste 0 1009.9 0.2 70
2017-07-28 01:00:00 23.4 9 Oeste 13 Oeste 0 1009.7 0.6 71
2017-07-28 00:00:00 24.3 3 Noroeste 7 Nordeste 0 1009.8 1.2 70
2017-07-27 23:00:00 24.6 5 Nordeste 8 Nordeste 0 1009.7 1.1 72
2017-07-27 22:00:00 24.9 6 Este 9 Nordeste 0 1009.1 0.3 69
2017-07-27 21:00:00 25.5 6 Sudeste 14 Sudeste 0 1008.6 -0.6 58
2017-07-27 20:00:00 25.6 10 Sudeste 15 Sudeste 0 1008.6 -1.1 60
2017-07-27 19:00:00 26.1 10 Sudeste 21 Sudeste 0 1008.8 -1.5 62
2017-07-27 18:00:00 26.5 13 Sudeste 22 Sudeste 0 1009.2 -1.5 60
2017-07-27 17:00:00 27 14 Sudeste 24 Sudeste 0 1009.7 -1.6 62
2017-07-27 16:00:00 26.8 14 Sudeste 23 Sudeste 0 1010.3 -1.2 64
2017-07-27 15:00:00 27.1 12 Sudeste 19 Sudeste 0 1010.7 -1.1 65
2017-07-27 14:00:00 27.3 12 Este 21 Este 0 1011.3 -0.5 62
2017-07-27 13:00:00 26.9 14 Este 19 Sudeste 0 1011.5 -0.4 63
2017-07-27 12:00:00 28.2 8 Este 14 Este 0 1011.8 0.2 61
2017-07-27 11:00:00 26.8 6 Este 15 Nordeste 0 1011.8 0.8 66
2017-07-27 10:00:00 25.1 10 Nordeste 14 Nordeste 0 1011.9 1.2 71
2017-07-27 09:00:00 23.3 5 Nordeste 10 Nordeste 0 1011.6 1 78
2017-07-27 08:00:00 21.6 2 Noroeste 8 Noroeste 0 1011 0.4 79
2017-07-27 07:00:00 21.5 4 Noroeste 9 Noroeste 0 1010.7 0.1 79
2017-07-27 06:00:00 21.8 7 Noroeste 10 Noroeste 0 1010.6 -0.2 79
2017-07-27 05:00:00 22.2 6 Noroeste 8 Noroeste 0 1010.6 -0.3 77
2017-07-27 04:00:00 22.4 6 Oeste 9 Oeste 0 1010.6 -0.2 76
2017-07-27 03:00:00 22.8 5 Noroeste 8 Oeste 0 1010.8 0.1 75
2017-07-27 02:00:00 23.1 4 Oeste 6 Oeste 0 1010.9 0.6 71
2017-07-27 01:00:00 23.4 0 Calma 8 Oeste 0 1010.8 1.1 70
2017-07-27 00:00:00 23.7 5 Oeste 14 Oeste 0 1010.7 1.5 69
2017-07-26 23:00:00 24 4 Sudoeste 18 Sur 0 1010.3 1.6 75
2017-07-26 22:00:00 24.4 12 Sur 21 Sur 0 1009.7 1 77
2017-07-26 21:00:00 25.4 13 Sur 21 Sur 0 1009.2 0.3 70
2017-07-26 20:00:00 26.6 14 Sur 23 Sur 0 1008.7 -0.7 62
2017-07-26 19:00:00 27 17 Sur 49 Este 0 1008.7 -1.1 57
2017-07-26 18:00:00 26.9 19 Sudeste 29 Sudeste 0 1008.9 -1.3 65
2017-07-26 17:00:00 27.2 19 Sudeste 29 Sudeste 0 1009.4 -1.3 63
2017-07-26 16:00:00 27.9 20 Sur 27 Sur 0 1009.8 -0.9 57
2017-07-26 15:00:00 26.8 17 Sudeste 25 Sur 0 1010.2 -0.5 64
2017-07-26 14:00:00 26.4 15 Sudeste 23 Sudeste 0 1010.7 0.1 66
2017-07-26 13:00:00 27 14 Este 21 Este 0 1010.7 0.1 64
2017-07-26 12:00:00 26.9 12 Este 18 Sudeste 0 1010.7 0.4 61
2017-07-26 11:00:00 27.8 12 Este 17 Este 0 1010.6 0.8 58
2017-07-26 10:00:00 26.8 10 Nordeste 19 Nordeste 0 1010.6 1.2 62
2017-07-26 09:00:00 25.6 13 Nordeste 17 Nordeste 0 1010.3 1 65
2017-07-26 08:00:00 23.5 7 Norte 19 Nordeste 0 1009.8 0.6 73
2017-07-26 07:00:00 23.1 14 Nordeste 22 Nordeste 0 1009.4 -0.1 76
2017-07-26 06:00:00 23.2 17 Nordeste 21 Nordeste 0 1009.3 -0.5 78
2017-07-26 05:00:00 23.4 16 Nordeste 21 Nordeste 0 1009.2 -0.5 77
2017-07-26 04:00:00 23.5 14 Nordeste 20 Nordeste 0 1009.5 -0.1 74
2017-07-26 03:00:00 23.8 17 Nordeste 22 Nordeste 0 1009.8 0.4 74
2017-07-26 02:00:00 23.8 17 Nordeste 21 Este 0 1009.7 0.5 77
2017-07-26 01:00:00 23.9 20 Este 23 Este 0 1009.6 1.2 77
2017-07-26 00:00:00 24.3 19 Este 24 Este 0 1009.4 1.4 76
2017-07-25 23:00:00 24.5 15 Este 20 Este 0 1009.2 1.2 74
2017-07-25 22:00:00 24.5 15 Este 21 Nordeste 0 1008.4 0.3 73
2017-07-25 21:00:00 25.1 16 Nordeste 22 Nordeste 0 1008 -0.3 72
2017-07-25 20:00:00 25.9 14 Este 21 Este 0 1008 -0.5 67
2017-07-25 19:00:00 26.1 15 Este 23 Este 0 1008.1 -1.1 68
2017-07-25 18:00:00 27.9 18 Este 23 Este 0 1008.3 -1.3 60
2017-07-25 17:00:00 28.6 17 Este 23 Nordeste 0 1008.5 -1.5 57
2017-07-25 16:00:00 28.9 20 Este 26 Este 0 1009.2 -1.3 54
2017-07-25 15:00:00 29 22 Este 30 Nordeste 0 1009.6 -0.9 56
2017-07-25 14:00:00 28.3 24 Nordeste 33 Nordeste 0 1010 -0.4 57
2017-07-25 13:00:00 28.5 25 Nordeste 34 Nordeste 0 1010.5 0.2 56
2017-07-25 12:00:00 27.7 29 Nordeste 37 Nordeste 0 1010.5 0.5 58
2017-07-25 11:00:00 27.7 30 Nordeste 42 Nordeste 0 1010.4 0.7 60
2017-07-25 10:00:00 26.2 31 Nordeste 40 Nordeste 0 1010.3 0.9 61
2017-07-25 09:00:00 24.9 28 Nordeste 38 Nordeste 0 1010 0.7 66
2017-07-25 08:00:00 23.4 20 Nordeste 35 Nordeste 0 1009.7 0.1 73
2017-07-25 07:00:00 23.1 26 Nordeste 37 Nordeste 0 1009.4 -0.7 76
2017-07-25 06:00:00 22.9 21 Nordeste 30 Nordeste 0 1009.3 -1.1 77
2017-07-25 05:00:00 22.8 19 Nordeste 28 Nordeste 0 1009.6 -1.2 78
2017-07-25 04:00:00 22.9 18 Nordeste 23 Nordeste 0 1010.1 -0.9 78
2017-07-25 03:00:00 22.8 15 Nordeste 22 Nordeste 0 1010.4 -0.6 79
2017-07-25 02:00:00 22.7 11 Nordeste 17 Nordeste 0 1010.8 0.1 78
2017-07-25 01:00:00 22.7 4 Norte 8 Nordeste 0 1011 0.7 75
2017-07-25 00:00:00 22.8 0 Calma 7 Sudeste 0 1011 1.1 76
2017-07-24 23:00:00 23.2 5 Sudeste 12 Sudeste 0 1010.7 1 76
2017-07-24 22:00:00 23.6 7 Sudeste 13 Sudeste 0 1010.3 0.6 74
2017-07-24 21:00:00 24 7 Sudeste 16 Sudoeste 0 1009.9 0 70
2017-07-24 20:00:00 24.6 9 Sudeste 19 Sudeste 0 1009.7 -0.3 67
2017-07-24 19:00:00 25.3 15 Sudeste 74 Sur 0 1009.7 -0.7 63
2017-07-24 18:00:00 26.2 14 Sudeste 26 Sudeste 0 1009.9 -1.2 59
2017-07-24 17:00:00 26.2 21 Sudeste 31 Sur 0 1010 -1.7 57
2017-07-24 16:00:00 27.7 18 Sudeste 32 Sur 0 1010.4 -1.7 49
2017-07-24 15:00:00 26.6 21 Sudeste 30 Sudeste 0 1011.1 -1.1 54
2017-07-24 14:00:00 25.3 15 Sudeste 22 Este 0 1011.7 -0.3 62
2017-07-24 13:00:00 26.5 12 Este 18 Sudeste 0 1012.1 0.1 53
2017-07-24 12:00:00 25.1 12 Sudeste 21 Sudeste 0 1012.2 0.2 62
2017-07-24 11:00:00 24.6 14 Sudeste 17 Sudeste 0 1012 0 62
2017-07-24 10:00:00 25 10 Sudeste 14 Sudeste 0 1012 0.7 57
2017-07-24 09:00:00 24.1 3 Sudeste 9 Oeste 0 1012 0.8 63
2017-07-24 08:00:00 21.5 5 Oeste 9 Oeste 0 1012 0.6 67
2017-07-24 07:00:00 20.5 9 Noroeste 13 Noroeste 0 1011.3 -0.3 69
2017-07-24 06:00:00 21.1 9 Noroeste 12 Noroeste 0 1011.2 -0.7 70
2017-07-24 05:00:00 21.5 8 Noroeste 16 Oeste 0 1011.4 -0.8 65
2017-07-24 04:00:00 21.9 6 Sudoeste 14 Noroeste 0 1011.6 -1.1 63
2017-07-24 03:00:00 22.1 8 Oeste 14 Oeste 0 1011.9 -0.7 64
2017-07-24 02:00:00 22 8 Oeste 15 Oeste 0 1012.2 -0.4 65
2017-07-24 01:00:00 22.5 9 Noroeste 17 Oeste 0 1012.7 0.6 57
2017-07-24 00:00:00 22.5 8 Oeste 9 Oeste 0 1012.6 0.8 62
2017-07-23 23:00:00 23.4 0 Calma 16 Sur 0 1012.6 1.5 65
2017-07-23 22:00:00 23.8 11 Sur 20 Sur 0 1012.1 1.1 65
2017-07-23 21:00:00 24.6 13 Sur 18 Sur 0 1011.8 0.5 62
2017-07-23 20:00:00 25.7 12 Sudeste 23 Sur 0 1011.1 -0.5 64
2017-07-23 19:00:00 26.4 16 Sur 25 Sudeste 0 1011 -1.1 64
2017-07-23 18:00:00 25.7 14 Sudeste 21 Sudeste 0 1011.3 -1.6 65
2017-07-23 17:00:00 25.8 12 Sudeste 26 Sudeste 0 1011.6 -1.9 68
2017-07-23 16:00:00 26.3 14 Sudeste 22 Este 0 1012.1 -1.5 65
2017-07-23 15:00:00 26.9 10 Este 23 Sudeste 0 1012.9 -0.2 63
2017-07-23 14:00:00 27.5 15 Este 22 Este 0 1013.5 0.7 63
2017-07-23 13:00:00 26.8 13 Este 22 Este 0 1013.6 0.9 65
2017-07-23 12:00:00 27.3 10 Este 24 Este 0 1013.1 0.6 65
2017-07-23 11:00:00 26.4 10 Este 18 Este 0 1012.8 1.7 66
2017-07-23 10:00:00 23.5 6 Noroeste 12 Sur 0 1012.7 1.8 75
2017-07-23 09:00:00 23 7 Sudeste 15 Oeste 0 1012.5 1.5 78
2017-07-23 08:00:00 22.5 5 Norte 14 Oeste 0 1011.1 0 79
2017-07-23 07:00:00 22.5 6 Noroeste 18 Oeste 0 1010.9 -0.1 80
2017-07-23 06:00:00 22.8 6 Sudeste 13 Este 0 1011 0.3 79
2017-07-23 05:00:00 22.9 7 Este 15 Este 0 1011.1 0.3 79
2017-07-23 04:00:00 23 6 Sudeste 19 Este 0 1011 -0.2 79
2017-07-23 03:00:00 23 4 Este 19 Norte 0 1010.7 -0.5 79
2017-07-23 02:00:00 23 17 Este 29 Este 0 1010.8 -0.9 78
2017-07-23 01:00:00 23.4 19 Sudeste 35 Sudeste 0 1011.2 0.7 77
2017-07-23 00:00:00 22.9 10 Oeste 30 Oeste 0 1011.2 1.4 72
2017-07-22 23:00:00 23.1 4 Noroeste 9 Sudeste 0 1011.7 2.9 75
2017-07-22 22:00:00 23.3 5 Este 12 Este 0 1010.5 1.6 74
2017-07-22 21:00:00 23.8 8 Sudeste 16 Este 0 1009.8 1.6 70
2017-07-22 20:00:00 24.7 6 Este 16 Sudeste 0 1008.8 0 65
2017-07-22 19:00:00 24.8 12 Este 18 Sudeste 0 1008.9 -0.1 65
2017-07-22 18:00:00 25 9 Sudeste 16 Este 0 1008.2 -0.8 65
2017-07-22 17:00:00 26 11 Sudeste 25 Sudeste 0 1008.8 -0.8 60
2017-07-22 16:00:00 26.3 18 Sudeste 30 Sur 0 1009 -0.8 60
2017-07-22 15:00:00 26 8 Este 21 Sudeste 0 1009 -0.9 57
2017-07-22 14:00:00 26.1 10 Sudeste 21 Sudeste 0 1009.6 0.3 60
2017-07-22 13:00:00 25.6 9 Sudeste 24 Sudeste 0 1009.8 0.6 63
2017-07-22 12:00:00 24.9 15 Sudeste 21 Sudeste 0 1009.9 1.3 65
2017-07-22 11:00:00 25.2 10 Este 18 Sur 0 1009.3 1.2 65
2017-07-22 10:00:00 24.4 13 Sudeste 19 Sudeste 0 1009.2 1.4 65
2017-07-22 09:00:00 23.6 4 Nordeste 9 Noroeste 0 1008.6 1.2 61
2017-07-22 08:00:00 20.5 8 Oeste 17 Oeste 0 1008.1 0.8 71
2017-07-22 07:00:00 20.1 9 Oeste 20 Oeste 0 1007.8 0.5 72
2017-07-22 06:00:00 19.9 9 Oeste 15 Oeste 0 1007.4 0.2 75
2017-07-22 05:00:00 20.2 12 Oeste 19 Oeste 0 1007.3 -0.3 75
2017-07-22 04:00:00 20.5 6 Oeste 14 Oeste 0 1007.3 -0.3 73
2017-07-22 03:00:00 20.7 10 Oeste 27 Oeste 0 1007.2 -1.1 73
2017-07-22 02:00:00 21.3 14 Oeste 31 Oeste 0 1007.6 -0.2 74
2017-07-22 01:00:00 21.7 21 Oeste 36 Oeste 0 1007.6 1 70
2017-07-22 00:00:00 22.5 17 Oeste 30 Sur 0 1008.3 3.2 63